Frem Nordica — OVIL2 — position and weather

sailwx.info

Track history (hours):
 
Tides and Currents Weather Stations Pressure Air Temp Water Temp Dewpoint Dewpoint Depression Visibility Wind Speed Wind Dir Waves Ship Positions

Frem Nordica

Last reported at 2015-Jun-29 18:20 UTC. Time now 2015-Jun-30 08:17 UTC.
Position N 55°11' E 012°12'.

Length 79 m; draft 2.5 m.

MMSI: 220439000.

Date/timePositionNaut miles runAvg speedWind from/ knotsBaromVisibWave heightAir tempDewpointWater temp
2015-Jun-29 18:20N 55°11' E 012°12'7 8.9
2015-Jun-29 17:33N 55°07' E 012°22'40 7.8
2015-Jun-29 12:26N 54°27' E 012°13'8 8.5
2015-Jun-29 11:33N 54°20' E 012°09'10 8.0
2015-Jun-29 10:14N 54°09' E 012°06'1 0.8
2015-Jun-29 09:33N 54°09' E 012°07'0 0.0
2015-Jun-29 08:12N 54°09' E 012°07'0 0.0
2015-Jun-29 06:33N 54°09' E 012°07'0 0.0
2015-Jun-29 05:33N 54°09' E 012°07'0 0.0
2015-Jun-29 04:33N 54°09' E 012°07'0 0.0
2015-Jun-29 03:33N 54°09' E 012°07'0 0.0
2015-Jun-29 02:21N 54°09' E 012°07'0 0.0
2015-Jun-28 23:33N 54°09' E 012°07'0 0.0
2015-Jun-28 22:33N 54°09' E 012°07'0 0.0
2015-Jun-28 21:30N 54°09' E 012°07'0 0.0
2015-Jun-28 20:30N 54°09' E 012°07'0 0.0
2015-Jun-28 18:30N 54°09' E 012°07'0 0.0
2015-Jun-28 17:33N 54°09' E 012°07'0 0.0
2015-Jun-28 16:30N 54°09' E 012°07'0 0.0
2015-Jun-28 15:33N 54°09' E 012°07'0 0.0
2015-Jun-28 14:24N 54°09' E 012°07'0 0.0
2015-Jun-28 13:24N 54°09' E 012°07'0 0.0
2015-Jun-28 12:30N 54°09' E 012°07'0 0.0
2015-Jun-28 10:33N 54°09' E 012°07'0 0.0
2015-Jun-28 09:33N 54°09' E 012°07'0 0.0
2015-Jun-28 08:33N 54°09' E 012°07'0 0.0
2015-Jun-28 07:33N 54°09' E 012°07'0 0.0
2015-Jun-28 06:33N 54°09' E 012°07'0 0.0
2015-Jun-28 05:33N 54°09' E 012°07'0 0.0
2015-Jun-28 04:12N 54°09' E 012°07'0 0.0
2015-Jun-28 03:09N 54°09' E 012°07'0 0.0
2015-Jun-28 02:12N 54°09' E 012°07'0 0.0
2015-Jun-27 23:33N 54°09' E 012°07'0 0.0
2015-Jun-27 22:33N 54°09' E 012°07'0 0.0
2015-Jun-27 21:24N 54°09' E 012°07'0 0.0
2015-Jun-27 20:27N 54°09' E 012°07'0 0.0
2015-Jun-27 19:33N 54°09' E 012°07'0 0.0
2015-Jun-27 18:27N 54°09' E 012°07'0 0.2
2015-Jun-27 17:32N 54°09' E 012°07'7 7.2
2015-Jun-27 16:33N 54°15' E 012°01'8 8.3
2015-Jun-27 15:33N 54°23' E 011°58'8 7.2
2015-Jun-27 14:26N 54°28' E 012°09'41 7.0
2015-Jun-27 08:33N 55°09' E 012°17'2 0.5
2015-Jun-27 03:34N 55°10' E 012°14'9 9.2
2015-Jun-27 02:33N 55°04' E 012°26'9 9.0
2015-Jun-27 01:32N 54°57' E 012°36'29 8.9
2015-Jun-26 22:14N 54°30' E 012°15'7 8.8
2015-Jun-26 21:29N 54°24' E 012°10'8 8.7
2015-Jun-26 20:33N 54°16' E 012°07'7 7.2
2015-Jun-26 19:33N 54°09' E 012°07'0 0.0
2015-Jun-26 17:28N 54°09' E 012°07'0 0.0
2015-Jun-26 16:25N 54°09' E 012°07'0 0.0
2015-Jun-26 15:30N 54°09' E 012°07'0 0.0
2015-Jun-26 14:33N 54°09' E 012°07'0 0.0
2015-Jun-26 13:28N 54°09' E 012°07'0 0.0
2015-Jun-26 12:30N 54°09' E 012°07'0 0.1
2015-Jun-26 11:33N 54°09' E 012°07'0 0.0
2015-Jun-26 10:34N 54°09' E 012°07'0 0.0
2015-Jun-26 09:34N 54°09' E 012°07'0 0.0
2015-Jun-26 08:34N 54°09' E 012°07'0 0.0
2015-Jun-26 07:18N 54°09' E 012°07'0 0.0
2015-Jun-26 06:34N 54°09' E 012°07'0 0.0
2015-Jun-26 05:33N 54°09' E 012°07'0 0.0
2015-Jun-26 03:27N 54°09' E 012°07'4 4.7
2015-Jun-26 02:33N 54°13' E 012°04'6 6.0
2015-Jun-26 01:33N 54°18' E 011°60'6 5.8
2015-Jun-26 00:33N 54°24' E 011°58'5 4.3
2015-Jun-25 23:30N 54°26' E 012°05'5 5.5
2015-Jun-25 22:33N 54°30' E 012°11'37 2.2
2015-Jun-25 05:30N 55°07' E 012°21'40 6.8
2015-Jun-24 23:34N 54°30' E 011°52'10 9.6
2015-Jun-24 22:34N 54°31' E 011°36'1010.0
2015-Jun-24 21:34N 54°35' E 011°20'22 9.4
2015-Jun-24 19:15N 54°40' E 010°44'8 9.3
2015-Jun-24 18:24N 54°44' E 010°32'8 9.6
2015-Jun-24 17:32N 54°49' E 010°20'8 0.7
2015-Jun-24 06:08N 54°54' E 010°10'5 7.7
2015-Jun-24 05:28N 54°50' E 010°17'32 7.5
2015-Jun-24 01:13N 54°37' E 011°07'5 7.4
2015-Jun-24 00:33N 54°35' E 011°15'8 7.5
2015-Jun-23 23:33N 54°32' E 011°27'8 7.8
2015-Jun-23 22:33N 54°30' E 011°39'8 7.9
2015-Jun-23 21:33N 54°30' E 011°53'20 0.8
2015-Jun-22 19:33N 54°33' E 011°19'8 8.4
2015-Jun-22 18:33N 54°37' E 011°06'17 8.5
2015-Jun-22 16:33N 54°42' E 010°38'9 9.4
2015-Jun-22 15:33N 54°47' E 010°24'12 0.6
2015-Jun-21 21:31N 54°55' E 010°10'6 6.2
2015-Jun-21 20:32N 54°51' E 010°18'6 6.3
2015-Jun-21 19:32N 54°48' E 010°27'6 6.2
2015-Jun-21 18:33N 54°44' E 010°35'21 6.5
2015-Jun-21 15:21N 54°36' E 011°09'6 7.5
2015-Jun-21 14:33N 54°34' E 011°18'7 7.0
2015-Jun-21 13:33N 54°31' E 011°29'8 8.0
2015-Jun-21 12:33N 54°28' E 011°42'8 7.9
2015-Jun-21 11:33N 54°27' E 011°56'20 6.8
2015-Jun-21 08:33N 54°40' E 012°22'8 7.8
2015-Jun-21 07:31N 54°44' E 012°34'63 7.7
2015-Jun-20 23:19N 54°56' E 014°22'6 7.9
2015-Jun-20 22:33N 54°56' E 014°33'8 7.9
2015-Jun-20 21:33N 54°57' E 014°46'8 8.1
2015-Jun-20 20:33N 54°57' E 015°01'8 8.4
2015-Jun-20 19:32N 54°58' E 015°15'8 8.1
2015-Jun-20 18:32N 54°58' E 015°29'98 8.0
2015-Jun-20 06:13N 54°58' E 018°21'5 7.3
2015-Jun-20 05:33N 54°57' E 018°29'7 7.4
2015-Jun-20 04:33N 54°56' E 018°41'8 8.0
2015-Jun-20 03:33N 54°53' E 018°55'8 8.1
2015-Jun-20 02:33N 54°50' E 019°08'8 8.1
2015-Jun-20 01:33N 54°48' E 019°21'8 7.9
2015-Jun-20 00:33N 54°45' E 019°34'  
Track history (hours):
 
Tides and Currents Weather Stations Pressure Air Temp Water Temp Dewpoint Dewpoint Depression Visibility Wind Speed Wind Dir Waves Ship Positions

Frem Nordica

Last reported at 2015-Jun-29 18:20 UTC. Time now 2015-Jun-30 08:17 UTC.
Position N 55°11' E 012°12'.

Length 79 m; draft 2.5 m.

MMSI: 220439000.

Date/timePositionNaut miles runAvg speedWind from/ knotsBaromVisibWave heightAir tempDewpointWater temp
2015-Jun-29 18:20N 55°11' E 012°12'7 8.9
2015-Jun-29 17:33N 55°07' E 012°22'40 7.8
2015-Jun-29 12:26N 54°27' E 012°13'8 8.5
2015-Jun-29 11:33N 54°20' E 012°09'10 8.0
2015-Jun-29 10:14N 54°09' E 012°06'1 0.8
2015-Jun-29 09:33N 54°09' E 012°07'0 0.0
2015-Jun-29 08:12N 54°09' E 012°07'0 0.0
2015-Jun-29 06:33N 54°09' E 012°07'0 0.0
2015-Jun-29 05:33N 54°09' E 012°07'0 0.0
2015-Jun-29 04:33N 54°09' E 012°07'0 0.0
2015-Jun-29 03:33N 54°09' E 012°07'0 0.0
2015-Jun-29 02:21N 54°09' E 012°07'0 0.0
2015-Jun-28 23:33N 54°09' E 012°07'0 0.0
2015-Jun-28 22:33N 54°09' E 012°07'0 0.0
2015-Jun-28 21:30N 54°09' E 012°07'0 0.0
2015-Jun-28 20:30N 54°09' E 012°07'0 0.0
2015-Jun-28 18:30N 54°09' E 012°07'0 0.0
2015-Jun-28 17:33N 54°09' E 012°07'0 0.0
2015-Jun-28 16:30N 54°09' E 012°07'0 0.0
2015-Jun-28 15:33N 54°09' E 012°07'0 0.0
2015-Jun-28 14:24N 54°09' E 012°07'0 0.0
2015-Jun-28 13:24N 54°09' E 012°07'0 0.0
2015-Jun-28 12:30N 54°09' E 012°07'0 0.0
2015-Jun-28 10:33N 54°09' E 012°07'0 0.0
2015-Jun-28 09:33N 54°09' E 012°07'0 0.0
2015-Jun-28 08:33N 54°09' E 012°07'0 0.0
2015-Jun-28 07:33N 54°09' E 012°07'0 0.0
2015-Jun-28 06:33N 54°09' E 012°07'0 0.0
2015-Jun-28 05:33N 54°09' E 012°07'0 0.0
2015-Jun-28 04:12N 54°09' E 012°07'0 0.0
2015-Jun-28 03:09N 54°09' E 012°07'0 0.0
2015-Jun-28 02:12N 54°09' E 012°07'0 0.0
2015-Jun-27 23:33N 54°09' E 012°07'0 0.0
2015-Jun-27 22:33N 54°09' E 012°07'0 0.0
2015-Jun-27 21:24N 54°09' E 012°07'0 0.0
2015-Jun-27 20:27N 54°09' E 012°07'0 0.0
2015-Jun-27 19:33N 54°09' E 012°07'0 0.0
2015-Jun-27 18:27N 54°09' E 012°07'0 0.2
2015-Jun-27 17:32N 54°09' E 012°07'7 7.2
2015-Jun-27 16:33N 54°15' E 012°01'8 8.3
2015-Jun-27 15:33N 54°23' E 011°58'8 7.2
2015-Jun-27 14:26N 54°28' E 012°09'41 7.0
2015-Jun-27 08:33N 55°09' E 012°17'2 0.5
2015-Jun-27 03:34N 55°10' E 012°14'9 9.2
2015-Jun-27 02:33N 55°04' E 012°26'9 9.0
2015-Jun-27 01:32N 54°57' E 012°36'29 8.9
2015-Jun-26 22:14N 54°30' E 012°15'7 8.8
2015-Jun-26 21:29N 54°24' E 012°10'8 8.7
2015-Jun-26 20:33N 54°16' E 012°07'7 7.2
2015-Jun-26 19:33N 54°09' E 012°07'0 0.0
2015-Jun-26 17:28N 54°09' E 012°07'0 0.0
2015-Jun-26 16:25N 54°09' E 012°07'0 0.0
2015-Jun-26 15:30N 54°09' E 012°07'0 0.0
2015-Jun-26 14:33N 54°09' E 012°07'0 0.0
2015-Jun-26 13:28N 54°09' E 012°07'0 0.0
2015-Jun-26 12:30N 54°09' E 012°07'0 0.1
2015-Jun-26 11:33N 54°09' E 012°07'0 0.0
2015-Jun-26 10:34N 54°09' E 012°07'0 0.0
2015-Jun-26 09:34N 54°09' E 012°07'0 0.0
2015-Jun-26 08:34N 54°09' E 012°07'0 0.0
2015-Jun-26 07:18N 54°09' E 012°07'0 0.0
2015-Jun-26 06:34N 54°09' E 012°07'0 0.0
2015-Jun-26 05:33N 54°09' E 012°07'0 0.0
2015-Jun-26 03:27N 54°09' E 012°07'4 4.7
2015-Jun-26 02:33N 54°13' E 012°04'6 6.0
2015-Jun-26 01:33N 54°18' E 011°60'6 5.8
2015-Jun-26 00:33N 54°24' E 011°58'5 4.3
2015-Jun-25 23:30N 54°26' E 012°05'5 5.5
2015-Jun-25 22:33N 54°30' E 012°11'37 2.2
2015-Jun-25 05:30N 55°07' E 012°21'40 6.8
2015-Jun-24 23:34N 54°30' E 011°52'10 9.6
2015-Jun-24 22:34N 54°31' E 011°36'1010.0
2015-Jun-24 21:34N 54°35' E 011°20'22 9.4
2015-Jun-24 19:15N 54°40' E 010°44'8 9.3
2015-Jun-24 18:24N 54°44' E 010°32'8 9.6
2015-Jun-24 17:32N 54°49' E 010°20'8 0.7
2015-Jun-24 06:08N 54°54' E 010°10'5 7.7
2015-Jun-24 05:28N 54°50' E 010°17'32 7.5
2015-Jun-24 01:13N 54°37' E 011°07'5 7.4
2015-Jun-24 00:33N 54°35' E 011°15'8 7.5
2015-Jun-23 23:33N 54°32' E 011°27'8 7.8
2015-Jun-23 22:33N 54°30' E 011°39'8 7.9
2015-Jun-23 21:33N 54°30' E 011°53'20 0.8
2015-Jun-22 19:33N 54°33' E 011°19'8 8.4
2015-Jun-22 18:33N 54°37' E 011°06'17 8.5
2015-Jun-22 16:33N 54°42' E 010°38'9 9.4
2015-Jun-22 15:33N 54°47' E 010°24'12 0.6
2015-Jun-21 21:31N 54°55' E 010°10'6 6.2
2015-Jun-21 20:32N 54°51' E 010°18'6 6.3
2015-Jun-21 19:32N 54°48' E 010°27'6 6.2
2015-Jun-21 18:33N 54°44' E 010°35'21 6.5
2015-Jun-21 15:21N 54°36' E 011°09'6 7.5
2015-Jun-21 14:33N 54°34' E 011°18'7 7.0
2015-Jun-21 13:33N 54°31' E 011°29'8 8.0
2015-Jun-21 12:33N 54°28' E 011°42'8 7.9
2015-Jun-21 11:33N 54°27' E 011°56'20 6.8
2015-Jun-21 08:33N 54°40' E 012°22'8 7.8
2015-Jun-21 07:31N 54°44' E 012°34'63 7.7
2015-Jun-20 23:19N 54°56' E 014°22'6 7.9
2015-Jun-20 22:33N 54°56' E 014°33'8 7.9
2015-Jun-20 21:33N 54°57' E 014°46'8 8.1
2015-Jun-20 20:33N 54°57' E 015°01'8 8.4
2015-Jun-20 19:32N 54°58' E 015°15'8 8.1
2015-Jun-20 18:32N 54°58' E 015°29'98 8.0
2015-Jun-20 06:13N 54°58' E 018°21'5 7.3
2015-Jun-20 05:33N 54°57' E 018°29'7 7.4
2015-Jun-20 04:33N 54°56' E 018°41'8 8.0
2015-Jun-20 03:33N 54°53' E 018°55'8 8.1
2015-Jun-20 02:33N 54°50' E 019°08'8 8.1
2015-Jun-20 01:33N 54°48' E 019°21'8 7.9
2015-Jun-20 00:33N 54°45' E 019°34'  

Dump ship's entire track history